Time;durP1;ratioP1;P1;durP2;ratioP2;P2;SDS_P1;SDS_P2;PMS_P1;PMS_P2;Temp;Humidity;BMP_temperature;BMP_pressure;BME280_temperature;BME280_humidity;BME280_pressure;Samples;Min_cycle;Max_cycle;Signal;HPM_P1;HPM_P2
2022/01/07 00:01:25;;;;;;;28.90;16.70;;;-2.60;99.90;;;;;;4916480;29;20549;-72
2022/01/07 00:03:51;;;;;;;24.93;15.90;;;-2.60;99.90;;;;;;4916249;29;20657;-71
2022/01/07 00:06:18;;;;;;;25.73;15.63;;;-2.60;99.90;;;;;;4915926;29;20206;-74
2022/01/07 00:08:44;;;;;;;27.60;15.27;;;-2.70;99.90;;;;;;4916718;29;20172;-72
2022/01/07 00:11:10;;;;;;;24.57;14.97;;;-2.30;99.90;;;;;;4917658;29;20548;-73
2022/01/07 00:13:36;;;;;;;26.87;14.83;;;-2.70;99.90;;;;;;4916032;29;20227;-72
2022/01/07 00:16:01;;;;;;;24.70;14.43;;;-2.80;99.90;;;;;;4918463;29;20295;-72
2022/01/07 00:18:27;;;;;;;25.77;14.93;;;-2.80;99.90;;;;;;4917029;29;20198;-72
2022/01/07 00:20:53;;;;;;;24.07;13.80;;;-2.80;99.90;;;;;;4915310;29;20286;-72
2022/01/07 00:23:20;;;;;;;20.40;13.27;;;-2.90;99.90;;;;;;4915491;29;20194;-72
2022/01/07 00:25:46;;;;;;;25.73;14.23;;;-2.90;99.90;;;;;;4915416;29;20210;-72
2022/01/07 00:28:12;;;;;;;26.97;14.53;;;-2.70;99.90;;;;;;4915698;29;20270;-72
2022/01/07 00:30:38;;;;;;;31.27;14.87;;;-2.60;99.90;;;;;;4916439;29;20207;-72
2022/01/07 00:33:04;;;;;;;26.23;15.13;;;-2.60;99.90;;;;;;4915127;29;20280;-71
2022/01/07 00:35:30;;;;;;;27.23;14.53;;;-2.50;99.90;;;;;;4914561;29;20219;-72
2022/01/07 00:37:56;;;;;;;25.23;14.30;;;-2.60;99.90;;;;;;4915916;29;20599;-71
2022/01/07 00:40:23;;;;;;;28.37;14.77;;;-2.70;99.90;;;;;;4917540;29;20183;-75
2022/01/07 00:42:50;;;;;;;27.87;15.23;;;-2.70;99.90;;;;;;4915948;29;20187;-72
2022/01/07 00:45:17;;;;;;;23.30;14.70;;;-2.60;99.90;;;;;;4915084;29;20203;-72
2022/01/07 00:47:43;;;;;;;21.10;14.63;;;-2.60;99.90;;;;;;4915693;29;20577;-72
2022/01/07 00:50:10;;;;;;;24.33;13.60;;;-2.50;99.90;;;;;;4916666;29;20658;-72
2022/01/07 00:52:35;;;;;;;22.03;14.20;;;-2.50;99.90;;;;;;4918408;29;20306;-71
2022/01/07 00:55:03;;;;;;;24.40;13.80;;;-2.60;99.90;;;;;;4920554;29;20223;-72
2022/01/07 00:57:28;;;;;;;19.93;13.87;;;-2.60;99.90;;;;;;4916474;29;20180;-72
2022/01/07 00:59:54;;;;;;;22.87;13.83;;;-2.60;99.90;;;;;;4914953;29;20328;-72
2022/01/07 01:02:19;;;;;;;21.77;13.60;;;-2.60;99.90;;;;;;4914815;29;20536;-73
2022/01/07 01:04:45;;;;;;;24.53;13.43;;;-2.60;99.90;;;;;;4914175;29;20747;-73
2022/01/07 01:07:12;;;;;;;25.17;14.10;;;-2.60;99.90;;;;;;4914397;29;20183;-73
2022/01/07 01:09:38;;;;;;;24.70;14.17;;;-2.90;99.90;;;;;;4914940;29;20183;-73
2022/01/07 01:12:04;;;;;;;21.07;12.57;;;-2.90;99.90;;;;;;4914854;29;20222;-73
2022/01/07 01:14:30;;;;;;;22.63;13.63;;;-3.10;99.90;;;;;;4914441;29;20190;-72
2022/01/07 01:16:58;;;;;;;20.87;13.13;;;-3.30;99.90;;;;;;4914929;29;20577;-72
2022/01/07 01:19:23;;;;;;;21.93;11.60;;;-3.20;99.90;;;;;;4914960;29;20184;-73
2022/01/07 01:21:49;;;;;;;22.50;12.43;;;-3.10;99.90;;;;;;4915885;29;20968;-73
2022/01/07 01:24:15;;;;;;;26.57;13.70;;;-3.20;99.90;;;;;;4914790;29;20931;-73
2022/01/07 01:26:41;;;;;;;24.07;12.53;;;-3.20;99.90;;;;;;4914394;29;20204;-73
2022/01/07 01:29:06;;;;;;;23.97;13.47;;;-3.10;99.90;;;;;;4917383;29;20653;-72
2022/01/07 01:31:35;;;;;;;25.87;13.00;;;-3.20;99.90;;;;;;4942116;23;20237;-83
2022/01/07 01:34:02;;;;;;;18.87;11.97;;;-3.30;99.90;;;;;;4966190;29;20218;-80
2022/01/07 01:36:27;;;;;;;24.97;13.47;;;-3.30;99.90;;;;;;4966930;28;20199;-82
2022/01/07 01:38:53;;;;;;;19.23;12.20;;;-3.20;99.90;;;;;;4969623;28;20175;-81
2022/01/07 01:41:19;;;;;;;24.40;12.60;;;-3.30;99.90;;;;;;4962387;29;20246;-80
2022/01/07 01:43:48;;;;;;;22.07;12.37;;;-3.40;99.90;;;;;;4962761;28;20232;-80
2022/01/07 01:46:14;;;;;;;21.20;12.43;;;-3.40;99.90;;;;;;4962381;29;20198;-79
2022/01/07 01:48:40;;;;;;;24.00;12.93;;;-3.40;99.90;;;;;;4958062;29;20213;-78
2022/01/07 01:51:06;;;;;;;24.03;13.00;;;-3.50;99.90;;;;;;4958493;29;20314;-81
2022/01/07 01:53:33;;;;;;;17.40;12.33;;;-3.40;99.90;;;;;;4957635;29;20269;-80
2022/01/07 01:55:59;;;;;;;23.27;12.00;;;-3.40;99.90;;;;;;4957372;28;20198;-79
2022/01/07 01:58:24;;;;;;;23.63;12.50;;;-3.40;99.90;;;;;;4957420;28;20185;-80
2022/01/07 02:00:50;;;;;;;26.27;12.93;;;-3.30;99.90;;;;;;4957336;29;20175;-78
2022/01/07 02:03:15;;;;;;;20.37;11.83;;;-3.20;99.90;;;;;;4959532;29;20613;-78
2022/01/07 02:05:41;;;;;;;20.77;12.80;;;-3.40;99.90;;;;;;4964379;29;20687;-79
2022/01/07 02:08:08;;;;;;;23.83;13.70;;;-3.40;99.90;;;;;;4962556;28;20182;-78
2022/01/07 02:10:33;;;;;;;18.67;11.53;;;-3.40;99.90;;;;;;4962139;29;20202;-79
2022/01/07 02:12:59;;;;;;;22.23;11.87;;;-3.50;99.90;;;;;;4961441;29;20214;-79
2022/01/07 02:15:24;;;;;;;17.77;11.83;;;-3.60;99.90;;;;;;4946760;29;20221;-80
2022/01/07 02:17:53;;;;;;;20.67;11.90;;;-3.50;99.90;;;;;;4965192;29;20182;-80
2022/01/07 02:20:20;;;;;;;23.80;13.83;;;-3.50;99.90;;;;;;4963764;28;20187;-82
2022/01/07 02:22:46;;;;;;;20.90;13.17;;;-3.50;99.90;;;;;;4962708;28;20186;-81
2022/01/07 02:25:13;;;;;;;26.23;13.43;;;-3.50;99.90;;;;;;4959837;29;20202;-79
2022/01/07 02:27:40;;;;;;;25.60;13.63;;;-3.60;99.90;;;;;;4959778;29;20234;-83
2022/01/07 02:30:09;;;;;;;23.60;13.63;;;-3.40;99.90;;;;;;4959493;28;20265;-78
2022/01/07 02:32:35;;;;;;;27.03;14.27;;;-3.40;99.90;;;;;;4961266;29;20225;-79
2022/01/07 02:35:01;;;;;;;26.57;13.93;;;-3.20;99.90;;;;;;4961231;29;20262;-82
2022/01/07 02:37:26;;;;;;;26.30;14.00;;;-3.20;99.90;;;;;;4963189;29;20183;-79
2022/01/07 02:39:54;;;;;;;28.77;14.77;;;-3.20;99.90;;;;;;4960170;28;20175;-79
2022/01/07 02:42:20;;;;;;;24.00;14.03;;;-3.00;99.90;;;;;;4960170;28;20706;-80
2022/01/07 02:44:46;;;;;;;25.43;13.13;;;-3.20;99.90;;;;;;4941874;29;20205;-82
2022/01/07 02:47:11;;;;;;;21.23;12.87;;;-3.50;99.90;;;;;;4959735;29;20208;-79
2022/01/07 02:49:37;;;;;;;26.07;13.07;;;-3.40;99.90;;;;;;4959338;28;20210;-79
2022/01/07 02:52:03;;;;;;;24.40;12.77;;;-3.30;99.90;;;;;;4957867;29;20257;-80
2022/01/07 02:54:28;;;;;;;19.73;12.33;;;-3.50;99.90;;;;;;4958936;28;20261;-81
2022/01/07 02:56:54;;;;;;;24.30;13.83;;;-3.70;99.90;;;;;;4957740;28;20258;-79
2022/01/07 02:59:20;;;;;;;21.20;12.60;;;-3.60;99.90;;;;;;4957303;29;20189;-79
2022/01/07 03:01:46;;;;;;;20.90;13.00;;;-3.60;99.90;;;;;;4957211;29;20198;-79
2022/01/07 03:04:11;;;;;;;22.70;13.50;;;-3.40;99.90;;;;;;4957658;28;20261;-81
2022/01/07 03:06:37;;;;;;;25.20;13.47;;;-3.40;99.90;;;;;;4957252;29;20206;-78
2022/01/07 03:09:04;;;;;;;24.67;13.33;;;-3.30;99.90;;;;;;4957571;29;20189;-78
2022/01/07 03:11:31;;;;;;;21.40;12.57;;;-3.50;99.90;;;;;;4958973;28;20246;-78
2022/01/07 03:13:56;;;;;;;20.53;13.30;;;-3.40;99.90;;;;;;4958565;28;20230;-80
2022/01/07 03:16:22;;;;;;;28.97;13.63;;;-3.40;99.90;;;;;;4958700;29;20344;-78
2022/01/07 03:18:48;;;;;;;26.97;13.47;;;-3.40;99.90;;;;;;4958337;28;20177;-79
2022/01/07 03:21:14;;;;;;;23.63;13.00;;;-3.40;99.90;;;;;;4958960;29;20551;-78
2022/01/07 03:23:41;;;;;;;24.10;13.50;;;-3.30;99.90;;;;;;4958422;28;20611;-79
2022/01/07 03:26:08;;;;;;;27.80;14.47;;;-3.30;99.90;;;;;;4958486;29;20233;-82
2022/01/07 03:28:34;;;;;;;22.07;13.73;;;-3.30;99.90;;;;;;4958518;28;20685;-79
2022/01/07 03:31:00;;;;;;;27.90;13.70;;;-3.40;99.90;;;;;;4957474;29;20217;-79
2022/01/07 03:33:25;;;;;;;20.80;13.67;;;-3.40;99.90;;;;;;4957108;28;20221;-81
2022/01/07 03:35:51;;;;;;;22.63;13.80;;;-3.40;99.90;;;;;;4956527;29;20293;-78
2022/01/07 03:38:17;;;;;;;22.70;12.70;;;-3.50;99.90;;;;;;4957527;28;20234;-79
2022/01/07 03:40:43;;;;;;;26.70;13.97;;;-3.30;99.90;;;;;;4958738;28;20183;-79
2022/01/07 03:43:08;;;;;;;27.93;13.70;;;-3.70;99.90;;;;;;4958168;28;20179;-82
2022/01/07 03:45:34;;;;;;;27.03;13.13;;;-4.00;99.90;;;;;;4958139;29;20222;-84
2022/01/07 03:48:00;;;;;;;24.70;13.37;;;-3.90;99.90;;;;;;4958753;28;20170;-78
2022/01/07 03:50:27;;;;;;;23.97;13.40;;;-3.90;99.90;;;;;;4958126;28;20608;-79
2022/01/07 03:52:54;;;;;;;23.40;12.80;;;-3.80;99.90;;;;;;4957934;29;20274;-81
2022/01/07 03:55:22;;;;;;;23.00;13.47;;;-3.70;99.90;;;;;;4958819;29;20206;-79
2022/01/07 03:57:48;;;;;;;24.80;14.67;;;-3.70;99.90;;;;;;4958374;28;20178;-79
2022/01/07 04:00:18;;;;;;;26.13;14.43;;;-3.70;99.90;;;;;;4957516;29;20233;-82
2022/01/07 04:02:44;;;;;;;24.67;13.93;;;-3.70;99.90;;;;;;4957002;29;20214;-80
2022/01/07 04:05:10;;;;;;;21.27;12.60;;;-3.80;99.90;;;;;;4957004;28;20191;-80
2022/01/07 04:07:36;;;;;;;22.90;13.07;;;-3.70;99.90;;;;;;4940090;29;20206;-80
2022/01/07 04:10:04;;;;;;;22.53;12.97;;;-3.80;99.90;;;;;;4957322;28;20626;-79
2022/01/07 04:12:30;;;;;;;23.23;13.53;;;-3.80;99.90;;;;;;4957358;28;20222;-79
2022/01/07 04:15:08;;;;;;;23.13;13.30;;;-3.90;99.90;;;;;;4957298;29;20209;-79
2022/01/07 04:17:44;;;;;;;18.60;11.67;;;-3.80;99.90;;;;;;4957152;29;20182;-79
2022/01/07 04:20:13;;;;;;;24.27;12.97;;;-3.80;99.90;;;;;;4956269;29;20257;-79
2022/01/07 04:22:39;;;;;;;20.40;12.90;;;-3.80;99.90;;;;;;4956744;28;20185;-80
2022/01/07 04:25:08;;;;;;;16.97;12.20;;;-3.80;99.90;;;;;;4957106;28;20198;-79
2022/01/07 04:27:35;;;;;;;20.10;12.00;;;-3.80;99.90;;;;;;4957212;28;20221;-79
2022/01/07 04:30:01;;;;;;;15.80;11.07;;;-3.70;99.90;;;;;;4956706;29;20851;-78
2022/01/07 04:32:26;;;;;;;20.80;12.03;;;-3.70;99.90;;;;;;4957101;29;20214;-80
2022/01/07 04:34:52;;;;;;;18.07;11.43;;;-3.70;99.90;;;;;;4957451;28;20337;-79
2022/01/07 04:37:18;;;;;;;23.43;12.73;;;-3.70;99.90;;;;;;4963060;28;20183;-80
2022/01/07 04:39:44;;;;;;;17.60;12.00;;;-3.80;99.90;;;;;;4960987;29;20193;-80
2022/01/07 04:42:09;;;;;;;17.63;10.67;;;-3.80;99.90;;;;;;4956740;29;20644;-79
2022/01/07 04:44:40;;;;;;;21.17;11.30;;;-3.90;99.90;;;;;;4953805;28;20178;-78
2022/01/07 04:47:07;;;;;;;17.13;10.90;;;-3.70;99.90;;;;;;4954224;28;20186;-79
2022/01/07 04:49:33;;;;;;;19.53;10.70;;;-3.60;99.90;;;;;;4954403;29;20186;-78
2022/01/07 04:51:59;;;;;;;19.27;10.50;;;-3.50;99.90;;;;;;4954481;28;20179;-79
2022/01/07 04:54:24;;;;;;;22.33;10.50;;;-3.40;99.90;;;;;;4954690;28;20241;-78
2022/01/07 04:56:50;;;;;;;16.90;10.60;;;-3.40;99.90;;;;;;4954616;28;20654;-79
2022/01/07 04:59:15;;;;;;;20.20;10.63;;;-3.40;99.90;;;;;;4953714;29;20182;-78
2022/01/07 05:01:41;;;;;;;17.47;10.20;;;-3.30;99.90;;;;;;4957403;28;20525;-81
2022/01/07 05:04:06;;;;;;;17.73;10.80;;;-3.10;99.90;;;;;;4961999;28;20763;-80
2022/01/07 05:06:45;;;;;;;15.57;10.70;;;-3.10;99.90;;;;;;4959332;29;20206;-80
2022/01/07 05:09:18;;;;;;;19.30;10.57;;;-3.20;99.90;;;;;;4960276;28;20179;-81
2022/01/07 05:11:49;;;;;;;17.73;10.67;;;-3.10;99.90;;;;;;4959801;29;20178;-79
2022/01/07 05:14:15;;;;;;;19.20;10.70;;;-3.00;99.90;;;;;;4959448;28;20722;-80
2022/01/07 05:16:42;;;;;;;19.90;11.53;;;-2.90;99.90;;;;;;4959164;29;20214;-81
2022/01/07 05:19:09;;;;;;;18.73;11.83;;;-2.80;99.90;;;;;;4943713;29;20234;-79
2022/01/07 05:21:35;;;;;;;16.87;10.90;;;-2.80;99.90;;;;;;4961924;28;20190;-79
2022/01/07 05:24:01;;;;;;;18.13;10.83;;;-2.70;99.90;;;;;;4965385;28;20203;-78
2022/01/07 05:26:27;;;;;;;18.30;10.87;;;-3.00;99.90;;;;;;4962846;28;20628;-77
2022/01/07 05:28:53;;;;;;;27.57;17.07;;;-3.00;99.90;;;;;;4959670;29;20182;-77
2022/01/07 05:31:22;;;;;;;36.63;23.87;;;-2.90;99.90;;;;;;4959432;28;20186;-79
2022/01/07 05:33:48;;;;;;;18.73;13.13;;;-2.90;99.90;;;;;;4958973;28;20786;-79
2022/01/07 05:36:14;;;;;;;27.00;14.47;;;-2.80;99.90;;;;;;4961930;28;20229;-80
2022/01/07 05:38:39;;;;;;;28.20;16.97;;;-3.00;99.90;;;;;;4965846;29;20643;-78
2022/01/07 05:41:05;;;;;;;21.77;12.30;;;-2.90;99.90;;;;;;4960905;29;20658;-80
2022/01/07 05:43:30;;;;;;;24.93;16.97;;;-3.00;99.90;;;;;;4963615;29;20634;-78
2022/01/07 05:45:57;;;;;;;20.23;10.53;;;-3.00;99.90;;;;;;4961144;28;20195;-79
2022/01/07 05:48:22;;;;;;;21.07;10.97;;;-2.90;99.90;;;;;;4962287;29;20179;-78
2022/01/07 05:50:48;;;;;;;20.83;12.07;;;-2.80;99.90;;;;;;4964518;28;20181;-79
2022/01/07 05:53:14;;;;;;;18.10;11.57;;;-2.80;99.90;;;;;;4962096;29;20218;-79
2022/01/07 05:55:39;;;;;;;16.53;11.00;;;-2.70;99.90;;;;;;4963154;29;20218;-78
2022/01/07 05:58:05;;;;;;;16.70;10.37;;;-2.80;99.90;;;;;;4965046;29;20175;-79
2022/01/07 06:00:30;;;;;;;22.57;11.30;;;-2.90;99.90;;;;;;4959198;28;20182;-81
2022/01/07 06:02:56;;;;;;;19.53;11.53;;;-2.80;99.90;;;;;;4958747;28;20233;-76
2022/01/07 06:05:21;;;;;;;20.60;13.27;;;-2.40;99.90;;;;;;4958220;28;20206;-77
2022/01/07 06:07:47;;;;;;;17.67;10.43;;;-2.50;99.90;;;;;;4959471;29;20206;-79
2022/01/07 06:10:13;;;;;;;17.17;10.10;;;-2.50;99.90;;;;;;4966375;29;20185;-77
2022/01/07 06:12:39;;;;;;;18.80;10.33;;;-2.50;99.90;;;;;;4972872;29;20214;-79
2022/01/07 06:15:05;;;;;;;18.00;10.13;;;-2.30;99.90;;;;;;4974206;28;20201;-78
2022/01/07 06:17:31;;;;;;;17.50;10.00;;;-2.40;99.90;;;;;;4972638;29;20519;-78
2022/01/07 06:19:57;;;;;;;18.70;10.67;;;-2.30;99.90;;;;;;4963800;28;20210;-80
2022/01/07 06:22:22;;;;;;;19.37;11.87;;;-2.30;99.90;;;;;;4960623;28;20171;-78
2022/01/07 06:24:48;;;;;;;16.50;10.90;;;-2.30;99.90;;;;;;4960342;28;20289;-79
2022/01/07 06:27:13;;;;;;;13.83;10.33;;;-2.30;99.90;;;;;;4961002;29;20209;-80
2022/01/07 06:29:39;;;;;;;17.13;9.63;;;-2.30;99.90;;;;;;4960588;29;20185;-80
2022/01/07 06:32:06;;;;;;;12.97;9.47;;;-2.20;99.90;;;;;;4959730;29;20194;-79
2022/01/07 06:34:32;;;;;;;17.10;10.43;;;-2.10;99.90;;;;;;4959180;28;20281;-79
2022/01/07 06:36:58;;;;;;;16.70;9.77;;;-2.10;99.90;;;;;;4960578;29;20175;-79
2022/01/07 06:39:24;;;;;;;17.87;10.33;;;-2.10;99.90;;;;;;4959358;28;20179;-81
2022/01/07 06:41:51;;;;;;;15.67;9.27;;;-2.00;99.90;;;;;;4959540;28;20639;-81
2022/01/07 06:44:17;;;;;;;13.97;9.23;;;-2.10;99.90;;;;;;4958861;29;20179;-82
2022/01/07 06:46:43;;;;;;;12.60;8.53;;;-2.10;99.90;;;;;;4959082;29;20269;-81
2022/01/07 06:49:09;;;;;;;13.03;8.43;;;-2.00;99.90;;;;;;4959216;28;20266;-79
2022/01/07 06:51:35;;;;;;;13.27;7.90;;;-1.80;99.90;;;;;;4958781;29;20206;-80
2022/01/07 06:54:00;;;;;;;11.53;7.57;;;-1.90;99.90;;;;;;4958471;28;20210;-80
2022/01/07 06:56:27;;;;;;;14.23;7.77;;;-1.80;99.90;;;;;;4958396;28;20186;-80
2022/01/07 06:58:53;;;;;;;13.23;7.97;;;-1.80;99.90;;;;;;4958663;28;20186;-80
2022/01/07 07:01:20;;;;;;;13.00;7.83;;;-1.90;99.90;;;;;;4959034;29;20182;-80
2022/01/07 07:03:45;;;;;;;14.30;8.03;;;-1.80;99.90;;;;;;4959147;28;20524;-80
2022/01/07 07:06:12;;;;;;;11.17;7.67;;;-2.10;99.90;;;;;;4958882;28;20217;-80
2022/01/07 07:08:37;;;;;;;13.73;8.37;;;-2.30;99.90;;;;;;4959342;28;20708;-80
2022/01/07 07:11:04;;;;;;;13.77;8.27;;;-2.20;99.90;;;;;;4955382;29;20210;-78
2022/01/07 07:13:30;;;;;;;13.90;7.70;;;-2.10;99.90;;;;;;4948332;28;20270;-79
2022/01/07 07:15:56;;;;;;;11.90;7.83;;;-2.40;99.90;;;;;;4947278;29;20195;-80
2022/01/07 07:18:21;;;;;;;11.43;7.47;;;-2.40;99.90;;;;;;4940447;29;20570;-79
2022/01/07 07:20:47;;;;;;;12.33;7.50;;;-2.40;99.90;;;;;;4940076;29;20243;-80
2022/01/07 07:23:13;;;;;;;12.60;7.53;;;-2.30;99.90;;;;;;4939796;29;20179;-80
2022/01/07 07:25:38;;;;;;;11.33;7.33;;;-2.20;99.90;;;;;;4948160;29;20194;-79
2022/01/07 07:28:04;;;;;;;10.90;7.10;;;-2.10;99.90;;;;;;4955671;29;20183;-79
2022/01/07 07:30:36;;;;;;;11.93;7.03;;;-2.10;99.90;;;;;;4956856;29;20170;-79
2022/01/07 07:33:28;;;;;;;13.83;8.07;;;-2.00;99.90;;;;;;4956961;29;20234;-78
2022/01/07 07:38:38;;;;;;;9.70;7.10;;;-1.90;99.90;;;;;;4939017;29;20644;-80
2022/01/07 07:41:03;;;;;;;10.67;6.67;;;-2.00;99.90;;;;;;4939804;29;20187;-81
2022/01/07 07:43:29;;;;;;;10.07;6.73;;;-2.30;99.90;;;;;;4940364;29;20187;-80
2022/01/07 07:45:55;;;;;;;10.27;6.80;;;-2.30;99.90;;;;;;4939969;29;20203;-79
2022/01/07 07:48:20;;;;;;;12.03;7.40;;;-2.00;99.90;;;;;;4941558;29;20175;-79
2022/01/07 07:50:46;;;;;;;12.30;7.77;;;-1.90;99.90;;;;;;4941964;29;20194;-78
2022/01/07 07:53:12;;;;;;;13.40;7.67;;;-1.90;99.90;;;;;;4944205;29;20211;-79
2022/01/07 07:55:38;;;;;;;11.10;7.17;;;-1.70;99.90;;;;;;4944918;29;20740;-77
2022/01/07 07:58:03;;;;;;;12.33;7.47;;;-1.60;90.40;;;;;;4959521;29;20203;-79
2022/01/07 08:00:31;;;;;;;9.30;6.53;;;-1.20;34.80;;;;;;4956619;29;20167;-80
2022/01/07 08:02:57;;;;;;;9.37;6.47;;;-0.60;1.00;;;;;;4968041;29;20198;-79
2022/01/07 08:05:23;;;;;;;9.93;6.50;;;0.50;1.00;;;;;;4962488;29;20266;-79
2022/01/07 08:07:48;;;;;;;8.70;5.97;;;1.50;1.00;;;;;;4961859;28;20645;-81
2022/01/07 08:10:21;;;;;;;9.03;6.03;;;3.30;99.90;;;;;;4960559;29;20186;-79
2022/01/07 08:13:14;;;;;;;10.07;5.77;;;4.20;1.00;;;;;;4958739;29;20221;-77
2022/01/07 08:15:58;;;;;;;9.50;5.40;;;5.10;99.90;;;;;;4957518;29;20737;-79
2022/01/07 08:18:28;;;;;;;6.40;5.27;;;3.80;99.90;;;;;;4941356;29;20589;-80
2022/01/07 08:20:55;;;;;;;20.87;13.20;;;1.50;15.70;;;;;;4958962;29;20178;-80
2022/01/07 08:23:21;;;;;;;19.20;12.13;;;0.70;99.90;;;;;;4959140;29;20175;-80
2022/01/07 08:25:47;;;;;;;12.37;8.60;;;0.30;1.00;;;;;;4958772;29;20202;-79
2022/01/07 08:28:14;;;;;;;9.77;7.00;;;0.30;1.00;;;;;;4958960;28;20182;-80
2022/01/07 08:31:13;;;;;;;14.47;9.60;;;0.20;1.00;;;;;;4959251;29;20179;-80
2022/01/07 08:36:10;;;;;;;10.97;8.03;;;-0.30;1.00;;;;;;4958363;29;20273;-79
2022/01/07 08:38:36;;;;;;;11.43;7.93;;;-0.10;1.00;;;;;;4940008;29;20218;-78
2022/01/07 08:41:02;;;;;;;12.13;7.80;;;-0.30;1.00;;;;;;4956733;28;20249;-81
2022/01/07 08:43:28;;;;;;;10.27;7.37;;;0.40;1.00;;;;;;4958968;29;20217;-80
2022/01/07 08:45:53;;;;;;;11.17;7.23;;;0.00;1.00;;;;;;4959078;29;20206;-78
2022/01/07 08:48:19;;;;;;;9.33;6.87;;;-0.30;1.00;;;;;;4956057;29;20182;-77
2022/01/07 08:50:45;;;;;;;9.93;6.93;;;0.30;1.00;;;;;;4948440;29;20221;-82
2022/01/07 08:53:11;;;;;;;10.80;7.20;;;0.10;1.00;;;;;;4947249;29;20305;-79
2022/01/07 08:55:37;;;;;;;10.93;7.27;;;0.10;1.00;;;;;;4945755;29;20206;-78
2022/01/07 08:58:03;;;;;;;10.27;7.37;;;-0.50;1.00;;;;;;4944700;29;20180;-82
2022/01/07 09:00:30;;;;;;;11.90;8.03;;;-0.60;24.80;;;;;;4944466;29;20178;-78
2022/01/07 09:02:56;;;;;;;11.87;7.93;;;-0.50;23.40;;;;;;4945947;29;20363;-80
2022/01/07 09:05:21;;;;;;;13.27;7.47;;;-0.40;1.00;;;;;;4944028;29;20809;-80
2022/01/07 09:07:47;;;;;;;10.57;7.70;;;-0.50;1.00;;;;;;4945842;28;20182;-79
2022/01/07 09:10:13;;;;;;;11.97;8.23;;;-0.50;26.50;;;;;;4957355;29;20190;-78
2022/01/07 09:12:38;;;;;;;11.87;8.90;;;-0.60;99.90;;;;;;4958023;28;20218;-80
2022/01/07 09:15:04;;;;;;;14.03;8.67;;;-0.60;99.90;;;;;;4956041;28;20637;-77
2022/01/07 09:17:32;;;;;;;12.00;8.60;;;-0.50;78.20;;;;;;4958647;28;20187;-80
2022/01/07 09:20:01;;;;;;;13.00;9.13;;;-0.30;98.80;;;;;;4956597;29;20186;-79
2022/01/07 09:22:27;;;;;;;13.53;8.10;;;-0.30;39.80;;;;;;4954219;29;20241;-78
2022/01/07 09:24:52;;;;;;;12.17;8.03;;;-0.30;13.30;;;;;;4954963;29;20198;-77
2022/01/07 09:27:18;;;;;;;11.70;7.70;;;0.10;1.00;;;;;;4956910;29;20644;-80
2022/01/07 09:29:43;;;;;;;13.33;7.97;;;0.20;1.00;;;;;;4955309;28;20395;-82
2022/01/07 09:32:09;;;;;;;11.63;8.00;;;0.20;1.00;;;;;;4952296;28;20191;-80
2022/01/07 09:34:36;;;;;;;11.37;8.03;;;0.10;1.00;;;;;;4940743;29;20214;-81
2022/01/07 09:37:02;;;;;;;13.10;9.23;;;-0.20;1.00;;;;;;4939307;29;20167;-80
2022/01/07 09:39:28;;;;;;;13.47;9.43;;;-0.50;5.20;;;;;;4939229;29;20183;-81
2022/01/07 09:41:54;;;;;;;16.27;9.23;;;0.20;1.00;;;;;;4939057;29;20175;-79
2022/01/07 09:44:19;;;;;;;12.93;9.13;;;0.00;12.60;;;;;;4939360;29;20186;-81
2022/01/07 09:46:45;;;;;;;13.83;8.90;;;-0.20;59.10;;;;;;4938656;29;20655;-81
2022/01/07 09:49:11;;;;;;;14.77;9.63;;;-0.10;99.90;;;;;;4939331;29;20613;-78
2022/01/07 09:51:38;;;;;;;19.77;11.97;;;-0.10;99.90;;;;;;4942063;29;20199;-78
2022/01/07 09:54:05;;;;;;;15.02;10.15;;;-0.30;99.90;;;;;;4943696;29;20456;-82
2022/01/07 09:56:31;;;;;;;14.60;9.37;;;-0.10;99.90;;;;;;4943596;29;20808;-81
2022/01/07 09:58:56;;;;;;;17.67;10.50;;;-0.10;99.90;;;;;;4943591;29;20207;-80
2022/01/07 10:01:25;;;;;;;14.03;10.10;;;-0.10;99.90;;;;;;4942950;29;20256;-81
2022/01/07 10:03:51;;;;;;;16.07;11.40;;;-0.10;92.80;;;;;;4942357;29;20222;-81
2022/01/07 10:06:16;;;;;;;14.90;10.40;;;-0.10;99.90;;;;;;4953922;29;20199;-83
2022/01/07 10:08:42;;;;;;;14.07;10.13;;;0.00;99.90;;;;;;4961108;29;20182;-79
2022/01/07 10:11:16;;;;;;;16.60;10.50;;;0.10;91.50;;;;;;4959979;28;20174;-80
2022/01/07 10:13:48;;;;;;;17.23;9.57;;;0.00;99.90;;;;;;4958555;29;20257;-80
2022/01/07 10:16:18;;;;;;;15.50;9.57;;;0.00;97.20;;;;;;4958003;28;20195;-81
2022/01/07 10:18:44;;;;;;;14.63;9.87;;;-0.10;1.00;;;;;;4957039;28;20202;-81
2022/01/07 10:21:10;;;;;;;29.57;19.17;;;0.00;1.00;;;;;;4957910;29;20175;-81
2022/01/07 10:23:37;;;;;;;18.00;11.27;;;0.20;1.00;;;;;;4964702;28;20189;-80
2022/01/07 10:26:03;;;;;;;16.33;10.53;;;0.10;1.00;;;;;;4948218;29;20209;-78
2022/01/07 10:28:32;;;;;;;13.80;10.07;;;0.10;1.00;;;;;;4946817;29;20238;-81
2022/01/07 10:31:00;;;;;;;16.60;10.53;;;-0.10;56.20;;;;;;4948095;29;20636;-79
2022/01/07 10:33:31;;;;;;;15.33;10.63;;;-0.10;99.90;;;;;;4933403;29;20286;-80
2022/01/07 10:36:01;;;;;;;15.23;9.57;;;0.10;99.90;;;;;;4946766;29;20215;-79
2022/01/07 10:38:31;;;;;;;15.20;9.80;;;0.30;28.60;;;;;;4958688;28;20183;-81
2022/01/07 10:41:00;;;;;;;14.97;8.70;;;0.00;1.20;;;;;;4959615;28;20247;-82
2022/01/07 10:43:32;;;;;;;16.60;9.07;;;0.60;17.90;;;;;;4960912;29;20210;-82
2022/01/07 10:46:07;;;;;;;14.50;9.77;;;0.30;15.30;;;;;;4956815;29;20203;-82
2022/01/07 10:48:53;;;;;;;14.10;9.20;;;0.30;99.90;;;;;;4951296;29;20250;-82
2022/01/07 10:51:30;;;;;;;12.60;9.30;;;0.20;99.90;;;;;;4954970;29;20182;-80
2022/01/07 10:54:05;;;;;;;16.13;9.83;;;0.20;99.90;;;;;;4966799;29;20233;-81
2022/01/07 10:56:41;;;;;;;15.47;9.87;;;0.10;99.90;;;;;;4960081;28;20197;-81
2022/01/07 10:59:14;;;;;;;15.73;10.43;;;0.20;99.90;;;;;;4958890;28;20186;-81
2022/01/07 11:01:45;;;;;;;13.90;8.90;;;0.20;99.90;;;;;;4949936;28;20191;-80
2022/01/07 11:04:14;;;;;;;13.13;9.73;;;0.20;99.90;;;;;;4956416;28;20182;-83
2022/01/07 11:06:40;;;;;;;12.97;9.00;;;0.40;99.90;;;;;;4959281;28;20203;-78
2022/01/07 11:09:09;;;;;;;13.67;9.83;;;0.40;99.90;;;;;;4941788;29;20189;-80
2022/01/07 11:11:41;;;;;;;14.17;9.73;;;0.40;99.90;;;;;;4960229;29;20229;-79
2022/01/07 11:14:08;;;;;;;15.30;9.90;;;0.20;99.90;;;;;;4945175;29;20250;-79
2022/01/07 11:16:36;;;;;;;14.50;9.33;;;0.20;99.90;;;;;;4938269;29;20199;-78
2022/01/07 11:19:02;;;;;;;14.80;9.67;;;-0.20;99.90;;;;;;4952838;29;20202;-80
2022/01/07 11:21:29;;;;;;;14.23;9.47;;;0.30;99.90;;;;;;4952168;29;20679;-78
2022/01/07 11:23:54;;;;;;;16.70;9.93;;;0.30;99.90;;;;;;4940446;29;20183;-81
2022/01/07 11:26:20;;;;;;;13.90;8.83;;;0.20;99.90;;;;;;4940346;29;20202;-80
2022/01/07 11:29:03;;;;;;;16.60;9.90;;;0.20;99.90;;;;;;4956408;29;20659;-78
2022/01/07 11:31:30;;;;;;;18.00;10.13;;;0.20;99.90;;;;;;4948299;29;20199;-79
2022/01/07 11:34:19;;;;;;;17.20;10.00;;;0.20;99.90;;;;;;4936386;29;20211;-78
2022/01/07 11:36:45;;;;;;;16.33;9.93;;;0.20;99.90;;;;;;4926309;29;20255;-77
2022/01/07 11:39:10;;;;;;;14.07;9.17;;;0.20;99.90;;;;;;4949010;28;20559;-80
2022/01/07 11:41:50;;;;;;;16.83;9.43;;;0.10;99.90;;;;;;4936765;29;20645;-78
2022/01/07 11:44:26;;;;;;;14.13;9.03;;;0.20;99.90;;;;;;4945947;29;20246;-85
2022/01/07 11:47:12;;;;;;;13.27;8.73;;;0.30;99.90;;;;;;4954151;29;20178;-79
2022/01/07 11:49:37;;;;;;;15.53;7.80;;;0.40;99.90;;;;;;4960659;28;20182;-81
2022/01/07 11:52:30;;;;;;;11.50;7.70;;;0.50;99.90;;;;;;4959828;29;20529;-81
2022/01/07 11:55:23;;;;;;;10.80;7.63;;;0.50;99.90;;;;;;4959937;29;20218;-79
2022/01/07 11:57:51;;;;;;;15.47;8.90;;;0.50;99.90;;;;;;4959805;29;20178;-79
2022/01/07 12:00:56;;;;;;;17.83;8.43;;;0.50;99.90;;;;;;4957580;29;20181;-78
2022/01/07 12:03:45;;;;;;;12.77;8.97;;;0.70;99.90;;;;;;4959996;28;20264;-80
2022/01/07 12:06:24;;;;;;;19.20;9.60;;;0.70;99.90;;;;;;4959631;28;20202;-79
2022/01/07 12:08:58;;;;;;;21.53;10.23;;;0.70;99.90;;;;;;4939433;29;20174;-79
2022/01/07 12:11:29;;;;;;;13.83;9.13;;;0.90;99.90;;;;;;4951033;28;20190;-79
2022/01/07 12:13:55;;;;;;;18.10;9.40;;;0.80;99.90;;;;;;4937768;29;20298;-78
2022/01/07 12:16:22;;;;;;;14.57;10.13;;;0.70;99.90;;;;;;4935650;29;20729;-78
2022/01/07 12:18:48;;;;;;;19.37;10.97;;;0.70;99.90;;;;;;4935441;29;20551;-81
2022/01/07 12:21:14;;;;;;;18.50;11.13;;;0.70;99.90;;;;;;4935525;29;20175;-79
2022/01/07 12:23:41;;;;;;;17.80;10.70;;;0.70;99.90;;;;;;4935855;29;20238;-78
2022/01/07 12:26:07;;;;;;;19.43;11.50;;;0.50;99.90;;;;;;4935454;29;20222;-79
2022/01/07 12:28:45;;;;;;;20.83;11.83;;;0.50;99.90;;;;;;4937504;29;20202;-80
2022/01/07 12:31:12;;;;;;;17.30;12.00;;;0.50;99.90;;;;;;4935424;29;20194;-79
2022/01/07 12:34:02;;;;;;;21.73;12.87;;;0.70;99.90;;;;;;4936868;29;20215;-78
2022/01/07 12:36:29;;;;;;;22.60;12.40;;;0.70;99.90;;;;;;4937226;29;20246;-80
2022/01/07 12:38:58;;;;;;;23.70;13.70;;;0.50;99.90;;;;;;4941358;29;20201;-81
2022/01/07 12:41:24;;;;;;;22.57;14.17;;;0.40;99.90;;;;;;4941360;29;20242;-83
2022/01/07 12:44:07;;;;;;;22.07;14.33;;;0.40;99.90;;;;;;4948346;28;20175;-80